Archival Weather

Heathrow

Heathrow, United Kingdom (EGLL)

Report from: Thursday, June 23, 2022 1:20 AM BST
Current time: Tuesday, August 16, 2022 8:47 AM BST

Current weather
Weather history
Weather forecast

Temperature16.0°C (60.8°F)
Dew point11.0°C (51.8°F)
Winds 2 kts (1 m/s, 2.3 mph) East (80°)
Visibility6.2 mi. (10 km)
Clouds Sky clear
Altimeter29.88 in.Hg (1012 mB)
Relative humidity72 %
Density altitude345 ft. (105 m)
Remarks Fully automated report
No clouds detected
No significant changes expected in the next two hours
Flight conditions Visual Meteorological Conditions
Raw dataEGLL 230020Z AUTO 08002KT 9999 NCD 16/11 Q1012 NOSIG
An error has occurred. This application may no longer respond until reloaded. Reload 🗙